Weather at Incheon International Airport

Public forecast

Using degrees Celsius for public forecast. Weather courtesy of forecast.io.

Current aviation weather report (METAR) for Incheon International Airport

Retrieved 2021/08/04 15:30 UTC (20 minutes ago):

RKSI 041530Z 23003KT CAVOK 26/24 Q1008 NOSIG

Aviation forecast (TAF) for Incheon International Airport

Retrieved 2021/08/04 12:00 UTC (4 hours ago):

TAF RKSI 041100Z 0412/0518 20005KT 9999 SCT040 TN25/0420Z TX32/0505Z TEMPO 0419/0422 BKN030 BECMG 0503/0504 30008KT BECMG 0514/0515 07005KT